createdAt,value
2022-08-20T00:00:41.690Z,100749.88
2022-08-20T00:03:16.984Z,100864.53
2022-08-20T00:05:47.423Z,100856.38
2022-08-20T00:08:14.064Z,100844.22
2022-08-20T00:10:43.214Z,100781.81
2022-08-20T00:13:15.124Z,100876.13
2022-08-20T00:15:45.481Z,100833.25
2022-08-20T00:18:12.340Z,100690.53
2022-08-20T00:20:43.190Z,100842.31
2022-08-20T00:23:10.723Z,100771.44
2022-08-20T00:25:38.511Z,100852.25
2022-08-20T00:28:06.997Z,100772.47
2022-08-20T00:30:35.556Z,100850.06
2022-08-20T00:33:15.965Z,100857.09
2022-08-20T00:35:45.835Z,100832.94
2022-08-20T00:38:13.043Z,100767.00
2022-08-20T00:40:46.351Z,100828.88
2022-08-20T00:43:33.626Z,100726.31
2022-08-20T00:46:02.665Z,100832.50
2022-08-20T00:48:32.845Z,100739.59
2022-08-20T00:51:18.201Z,100799.31
2022-08-20T00:53:45.224Z,100750.84
2022-08-20T00:56:12.733Z,100756.16
2022-08-20T00:58:42.214Z,100841.53
2022-08-20T01:01:09.482Z,100778.78
2022-08-20T01:03:36.362Z,100819.47
2022-08-20T01:06:03.156Z,100797.03
2022-08-20T01:08:29.676Z,100812.78
2022-08-20T01:11:09.684Z,100751.97
2022-08-20T01:13:39.558Z,100830.59
2022-08-20T01:16:13.194Z,100838.28
2022-08-20T01:18:40.441Z,100764.50
2022-08-20T01:21:08.385Z,100813.00
2022-08-20T01:23:43.526Z,100832.38
2022-08-20T01:26:23.087Z,100797.22
2022-08-20T01:28:54.517Z,100824.75
2022-08-20T01:31:24.769Z,100819.34
2022-08-20T01:33:54.296Z,100844.91
2022-08-20T01:36:24.894Z,100824.84
2022-08-20T01:38:54.629Z,100840.97
2022-08-20T01:41:48.911Z,100838.69
2022-08-20T01:44:18.542Z,100829.28
2022-08-20T01:46:47.042Z,100833.38
2022-08-20T01:49:34.829Z,100853.47
2022-08-20T01:52:07.900Z,100824.38
2022-08-20T01:54:35.514Z,100814.28
2022-08-20T01:57:05.781Z,100846.38
2022-08-20T01:59:32.554Z,100816.16
2022-08-20T02:01:59.963Z,100836.13
2022-08-20T02:04:27.040Z,100744.66
2022-08-20T02:06:57.830Z,100776.91
2022-08-20T02:09:29.461Z,100837.72
2022-08-20T02:11:57.608Z,100801.31
2022-08-20T02:14:24.186Z,100809.41
2022-08-20T02:16:55.503Z,100829.47
2022-08-20T02:19:40.390Z,100832.72
2022-08-20T02:22:16.831Z,100840.19
2022-08-20T02:24:43.908Z,100813.69
2022-08-20T02:27:10.592Z,100815.97
2022-08-20T02:29:37.299Z,100748.03
2022-08-20T02:32:26.241Z,100792.84
2022-08-20T02:34:52.701Z,100836.72
2022-08-20T02:37:19.194Z,100815.41
2022-08-20T02:39:46.857Z,100804.50
2022-08-20T02:42:13.455Z,100837.84
2022-08-20T02:44:40.420Z,100792.97
2022-08-20T02:47:07.505Z,100821.31
2022-08-20T02:49:35.429Z,100824.38
2022-08-20T02:52:02.169Z,100834.13
2022-08-20T02:54:29.350Z,100817.34
2022-08-20T02:56:56.163Z,100754.13
2022-08-20T02:59:22.889Z,100791.50
2022-08-20T03:02:00.042Z,100843.41
2022-08-20T03:04:29.523Z,100823.78
2022-08-20T03:06:56.530Z,100817.16
2022-08-20T03:09:23.588Z,100814.59
2022-08-20T03:11:50.129Z,100786.75
2022-08-20T03:14:16.763Z,100810.91
2022-08-20T03:16:43.265Z,100778.38
2022-08-20T03:19:09.869Z,100801.41
2022-08-20T03:21:36.755Z,100799.88
2022-08-20T03:24:03.619Z,100764.34
2022-08-20T03:26:30.127Z,100748.28
2022-08-20T03:28:56.772Z,100817.16
2022-08-20T03:31:23.345Z,100718.34
2022-08-20T03:33:53.370Z,100704.00
2022-08-20T03:36:28.285Z,100792.81
2022-08-20T03:39:00.742Z,100826.56
2022-08-20T03:41:28.663Z,100733.59
2022-08-20T03:43:55.278Z,100815.16
2022-08-20T03:46:23.373Z,100806.78
2022-08-20T03:48:56.620Z,100821.63
2022-08-20T03:51:27.634Z,100736.25
2022-08-20T03:53:54.087Z,100821.13
2022-08-20T03:56:20.559Z,100761.53
2022-08-20T03:58:47.188Z,100838.28
2022-08-20T04:01:44.819Z,100836.91
2022-08-20T04:04:00.822Z,100804.72
2022-08-20T04:06:29.567Z,100832.84
2022-08-20T04:08:56.851Z,100776.13
2022-08-20T04:11:24.249Z,100851.16
2022-08-20T04:13:51.014Z,100858.00
2022-08-20T04:16:18.074Z,100773.97
2022-08-20T04:19:01.485Z,100809.69
2022-08-20T04:21:33.038Z,100873.00
2022-08-20T04:24:01.333Z,100855.81
2022-08-20T04:26:28.449Z,100860.41
2022-08-20T04:28:55.573Z,100821.91
2022-08-20T04:31:25.419Z,100806.00
2022-08-20T04:33:52.470Z,100870.25
2022-08-20T04:36:19.026Z,100884.84
2022-08-20T04:38:47.872Z,100803.97
2022-08-20T04:41:22.945Z,100795.72
2022-08-20T04:43:52.207Z,100793.94
2022-08-20T04:46:19.286Z,100853.09
2022-08-20T04:48:48.520Z,100887.72
2022-08-20T04:51:18.206Z,100886.19
2022-08-20T04:53:51.670Z,100907.00
2022-08-20T04:56:23.456Z,100832.06
2022-08-20T04:58:52.339Z,100913.09
2022-08-20T05:01:19.485Z,100916.72
2022-08-20T05:03:47.717Z,100897.59
2022-08-20T05:06:16.165Z,100885.59
2022-08-20T05:08:43.386Z,100892.06
2022-08-20T05:11:33.051Z,100825.19
2022-08-20T05:13:57.309Z,100840.09
2022-08-20T05:16:24.475Z,100908.13
2022-08-20T05:18:52.737Z,100842.09
2022-08-20T05:21:20.779Z,100840.88
2022-08-20T05:23:47.473Z,100932.16
2022-08-20T05:26:15.730Z,100859.63
2022-08-20T05:28:54.088Z,100851.66
2022-08-20T05:31:31.777Z,100930.66
2022-08-20T05:34:01.446Z,100951.97
2022-08-20T05:36:27.932Z,100926.00
2022-08-20T05:38:54.656Z,100903.03
2022-08-20T05:41:27.710Z,100821.06
2022-08-20T05:44:02.345Z,100948.31
2022-08-20T05:46:31.457Z,100932.09
2022-08-20T05:48:59.615Z,100951.03
2022-08-20T05:51:27.706Z,100941.69
2022-08-20T05:53:54.149Z,100937.75
2022-08-20T05:56:26.633Z,100948.88
2022-08-20T05:58:53.418Z,100935.25
2022-08-20T06:01:20.021Z,100919.53
2022-08-20T06:04:05.129Z,100947.44
2022-08-20T06:06:45.723Z,100918.75
2022-08-20T06:09:31.438Z,100933.81
2022-08-20T06:12:04.403Z,100958.69
2022-08-20T06:14:31.284Z,100933.22
2022-08-20T06:17:15.376Z,100942.84
2022-08-20T06:19:44.518Z,100958.91
2022-08-20T06:22:19.666Z,100922.19
2022-08-20T06:24:51.328Z,100954.97
2022-08-20T06:27:18.361Z,100908.31
2022-08-20T06:29:45.389Z,100968.53
2022-08-20T06:32:11.902Z,100958.22
2022-08-20T06:34:38.414Z,100949.50
2022-08-20T06:37:31.527Z,100950.78
2022-08-20T06:40:07.068Z,100932.53
2022-08-20T06:42:33.824Z,100966.47
2022-08-20T06:45:03.170Z,100940.91
2022-08-20T06:47:30.369Z,100977.13
2022-08-20T06:49:57.295Z,100881.34
2022-08-20T06:52:51.715Z,100971.97
2022-08-20T06:55:11.112Z,100965.63
2022-08-20T06:57:38.425Z,100965.97
2022-08-20T07:00:12.200Z,100972.84
2022-08-20T07:02:38.739Z,100815.22
2022-08-20T07:05:06.292Z,100899.63
2022-08-20T07:07:32.874Z,100916.06
2022-08-20T07:10:05.623Z,100966.28
2022-08-20T07:12:32.198Z,100961.59
2022-08-20T07:14:58.719Z,100851.94
2022-08-20T07:17:25.319Z,100818.19
2022-08-20T07:19:51.746Z,100970.84
2022-08-20T07:22:18.226Z,100979.25
2022-08-20T07:24:48.912Z,100979.88
2022-08-20T07:27:20.604Z,100981.13
2022-08-20T07:30:06.364Z,100948.28
2022-08-20T07:32:39.339Z,100979.25
2022-08-20T07:35:09.498Z,101001.38
2022-08-20T07:37:41.996Z,100960.19
2022-08-20T07:40:12.772Z,100976.69
2022-08-20T07:42:40.445Z,100975.31
2022-08-20T07:45:10.717Z,100901.22
2022-08-20T07:47:39.282Z,100982.16
2022-08-20T07:50:07.000Z,100952.13
2022-08-20T07:52:35.287Z,101001.72
2022-08-20T07:55:11.071Z,101002.53
2022-08-20T07:57:38.498Z,101015.22
2022-08-20T08:00:08.835Z,101019.19
2022-08-20T08:02:36.768Z,100960.16
2022-08-20T08:05:05.314Z,101034.06
2022-08-20T08:07:33.535Z,101004.22
2022-08-20T08:10:03.884Z,100936.44
2022-08-20T08:12:38.374Z,100969.56
2022-08-20T08:15:09.109Z,100972.84
2022-08-20T08:17:36.465Z,100997.41
2022-08-20T08:20:06.413Z,100942.69
2022-08-20T08:22:33.159Z,100921.94
2022-08-20T08:25:02.358Z,100965.03
2022-08-20T08:27:33.400Z,100935.84
2022-08-20T08:30:01.045Z,100921.56
2022-08-20T08:32:28.512Z,100961.41
2022-08-20T08:34:55.011Z,100973.16
2022-08-20T08:37:21.490Z,100974.25
2022-08-20T08:39:48.211Z,100966.72
2022-08-20T08:42:33.638Z,101040.03
2022-08-20T08:45:00.684Z,101018.44
2022-08-20T08:47:35.866Z,100976.31
2022-08-20T08:50:05.585Z,101024.84
2022-08-20T08:52:35.110Z,101040.19
2022-08-20T08:55:10.383Z,101051.22
2022-08-20T08:57:36.870Z,101025.91
2022-08-20T09:00:13.243Z,101056.38
2022-08-20T09:02:42.483Z,101014.84
2022-08-20T09:05:16.773Z,100944.00
2022-08-20T09:07:48.177Z,101045.53
2022-08-20T09:10:14.612Z,101002.78
2022-08-20T09:12:45.708Z,101017.91
2022-08-20T09:15:14.040Z,101003.88
2022-08-20T09:17:41.421Z,100986.72
2022-08-20T09:20:09.468Z,101028.69
2022-08-20T09:22:35.946Z,101004.47
2022-08-20T09:25:03.581Z,101048.81
2022-08-20T09:27:39.332Z,101013.06
2022-08-20T09:30:09.236Z,101069.28
2022-08-20T09:32:35.773Z,100972.47
2022-08-20T09:35:04.030Z,101054.19
2022-08-20T09:37:37.454Z,101047.09
2022-08-20T09:40:30.618Z,101038.16
2022-08-20T09:42:59.426Z,101068.22
2022-08-20T09:45:26.120Z,101021.53
2022-08-20T09:47:57.010Z,101006.09
2022-08-20T09:50:26.364Z,101000.28
2022-08-20T09:52:54.948Z,101020.44
2022-08-20T09:55:36.868Z,101009.88
2022-08-20T09:58:09.458Z,101029.00
2022-08-20T10:00:36.235Z,100985.16
2022-08-20T10:03:03.419Z,101002.84
2022-08-20T10:05:30.290Z,101085.22
2022-08-20T10:07:56.863Z,100995.63
2022-08-20T10:10:23.479Z,101038.34
2022-08-20T10:12:54.630Z,101080.97
2022-08-20T10:15:21.774Z,101014.69
2022-08-20T10:17:48.369Z,100989.47
2022-08-20T10:20:16.081Z,101031.44
2022-08-20T10:22:42.687Z,100988.25
2022-08-20T10:25:09.894Z,100994.69
2022-08-20T10:27:37.226Z,101043.16
2022-08-20T10:30:06.067Z,101052.97
2022-08-20T10:32:32.555Z,101062.34
2022-08-20T10:34:59.188Z,100992.91
2022-08-20T10:37:26.366Z,101035.09
2022-08-20T10:39:53.381Z,101019.84
2022-08-20T10:42:20.265Z,101038.91
2022-08-20T10:44:46.908Z,100985.50
2022-08-20T10:47:15.694Z,101070.91
2022-08-20T10:49:42.211Z,101021.75
2022-08-20T10:52:08.710Z,101024.06
2022-08-20T10:54:35.173Z,101043.31
2022-08-20T10:57:04.864Z,101023.16
2022-08-20T10:59:31.434Z,101040.03
2022-08-20T11:01:57.973Z,101015.66
2022-08-20T11:04:24.588Z,101062.47
2022-08-20T11:06:51.069Z,101030.19
2022-08-20T11:09:17.573Z,101010.84
2022-08-20T11:11:44.080Z,100990.75
2022-08-20T11:14:10.596Z,101033.97
2022-08-20T11:16:37.498Z,101018.06
2022-08-20T11:19:04.024Z,101053.34
2022-08-20T11:21:31.062Z,100997.47
2022-08-20T11:24:02.227Z,101021.75
2022-08-20T11:26:29.327Z,101071.84
2022-08-20T11:28:55.819Z,101004.41
2022-08-20T11:31:22.293Z,101015.50
2022-08-20T11:33:48.840Z,101007.50
2022-08-20T11:36:15.292Z,101054.72
2022-08-20T11:38:41.841Z,101056.44
2022-08-20T11:41:08.368Z,101021.28
2022-08-20T11:43:34.824Z,101037.78
2022-08-20T11:46:01.352Z,101097.19
2022-08-20T11:48:27.829Z,101038.63
2022-08-20T11:50:54.404Z,101009.59
2022-08-20T11:53:21.565Z,101012.41
2022-08-20T11:55:49.141Z,100983.50
2022-08-20T11:58:15.981Z,100999.81
2022-08-20T12:00:42.433Z,101045.69
2022-08-20T12:03:09.974Z,101029.47
2022-08-20T12:05:42.819Z,101092.69
2022-08-20T12:08:10.510Z,101085.19
2022-08-20T12:10:54.214Z,101009.69
2022-08-20T12:13:20.677Z,101014.22
2022-08-20T12:15:54.348Z,101080.63
2022-08-20T12:18:21.700Z,101074.88
2022-08-20T12:20:53.551Z,101072.41
2022-08-20T12:23:20.222Z,100987.78
2022-08-20T12:25:46.682Z,100994.63
2022-08-20T12:28:13.765Z,100996.03
2022-08-20T12:30:40.266Z,100998.28
2022-08-20T12:33:06.989Z,101003.84
2022-08-20T12:35:33.911Z,101071.25
2022-08-20T12:38:06.858Z,101071.78
2022-08-20T12:40:34.254Z,100965.94
2022-08-20T12:43:02.668Z,101071.66
2022-08-20T12:45:30.205Z,101002.78
2022-08-20T12:48:02.397Z,100977.34
2022-08-20T12:50:31.584Z,101065.03
2022-08-20T12:52:59.158Z,100943.34
2022-08-20T12:55:26.007Z,101068.38
2022-08-20T12:57:56.633Z,101068.56
2022-08-20T13:00:29.398Z,101049.59
2022-08-20T13:02:58.562Z,101061.94
2022-08-20T13:05:26.542Z,100998.47
2022-08-20T13:07:53.739Z,100944.88
2022-08-20T13:10:24.217Z,100994.16
2022-08-20T13:12:51.484Z,101058.94
2022-08-20T13:15:18.639Z,100960.50
2022-08-20T13:17:45.096Z,100999.81
2022-08-20T13:20:15.253Z,101056.66
2022-08-20T13:22:42.488Z,101053.66
2022-08-20T13:25:10.473Z,100983.88
2022-08-20T13:27:40.562Z,100973.16
2022-08-20T13:30:09.387Z,101056.94
2022-08-20T13:32:35.994Z,100967.38
2022-08-20T13:35:02.653Z,100969.69
2022-08-20T13:37:30.194Z,101045.59
2022-08-20T13:39:58.720Z,101049.41
2022-08-20T13:42:26.862Z,101045.53
2022-08-20T13:44:54.137Z,100943.59
2022-08-20T13:47:25.090Z,101033.31
2022-08-20T13:50:13.841Z,100933.72
2022-08-20T13:52:42.554Z,100977.75
2022-08-20T13:55:12.918Z,101032.44
2022-08-20T13:57:40.112Z,101030.50
2022-08-20T14:00:12.384Z,101025.50
2022-08-20T14:02:40.162Z,101019.28
2022-08-20T14:05:07.803Z,101032.28
2022-08-20T14:07:34.693Z,101042.91
2022-08-20T14:10:13.745Z,101009.63
2022-08-20T14:12:40.620Z,101014.53
2022-08-20T14:15:11.690Z,101002.09
2022-08-20T14:17:41.772Z,101020.38
2022-08-20T14:20:11.987Z,100981.59
2022-08-20T14:22:39.194Z,101022.81
2022-08-20T14:25:08.032Z,100979.78
2022-08-20T14:27:35.037Z,101011.56
2022-08-20T14:30:03.207Z,101026.00
2022-08-20T14:32:29.796Z,100965.44
2022-08-20T14:34:59.124Z,100936.75
2022-08-20T14:37:34.846Z,101020.81
2022-08-20T14:40:03.008Z,101024.59
2022-08-20T14:42:30.529Z,101021.47
2022-08-20T14:44:58.926Z,100989.13
2022-08-20T14:47:28.826Z,100952.75
2022-08-20T14:49:57.877Z,100967.13
2022-08-20T14:52:28.190Z,100957.66
2022-08-20T14:54:55.230Z,100986.56
2022-08-20T14:57:23.005Z,101024.34
2022-08-20T14:59:52.665Z,101007.00
2022-08-20T15:02:19.286Z,101001.56
2022-08-20T15:04:52.235Z,100986.91
2022-08-20T15:07:27.584Z,100969.97
2022-08-20T15:09:55.329Z,100958.59
2022-08-20T15:12:22.586Z,100997.84
2022-08-20T15:14:49.193Z,100885.63
2022-08-20T15:17:27.898Z,100982.78
2022-08-20T15:19:55.077Z,100932.03
2022-08-20T15:22:22.769Z,101022.75
2022-08-20T15:24:49.749Z,101026.34
2022-08-20T15:27:25.300Z,101022.63
2022-08-20T15:29:53.113Z,100927.19
2022-08-20T15:32:20.601Z,101007.28
2022-08-20T15:34:47.640Z,101022.53
2022-08-20T15:37:23.736Z,100996.97
2022-08-20T15:39:51.509Z,100971.53
2022-08-20T15:42:21.090Z,101008.75
2022-08-20T15:44:47.724Z,101006.06
2022-08-20T15:47:21.508Z,101006.69
2022-08-20T15:49:50.505Z,100989.25
2022-08-20T15:52:17.910Z,101004.53
2022-08-20T15:54:45.611Z,100967.16
2022-08-20T15:57:25.076Z,101003.91
2022-08-20T16:00:10.075Z,101006.69
2022-08-20T16:02:51.952Z,100991.19
2022-08-20T16:05:36.894Z,101009.78
2022-08-20T16:08:09.392Z,101003.75
2022-08-20T16:10:41.770Z,101003.09
2022-08-20T16:13:19.522Z,100990.81
2022-08-20T16:15:49.620Z,100983.31
2022-08-20T16:18:30.072Z,100979.34
2022-08-20T16:20:58.820Z,100996.13
2022-08-20T16:23:32.814Z,101003.69
2022-08-20T16:26:14.774Z,100999.75
2022-08-20T16:28:57.454Z,100918.88
2022-08-20T16:31:28.865Z,100918.44
2022-08-20T16:34:32.865Z,100981.66
2022-08-20T16:37:17.730Z,101006.84
2022-08-20T16:40:15.301Z,101010.25
2022-08-20T16:42:46.429Z,101008.84
2022-08-20T16:45:26.688Z,101000.28
2022-08-20T16:47:57.394Z,100981.66
2022-08-20T16:50:38.269Z,100977.50
2022-08-20T16:53:05.314Z,100978.72
2022-08-20T16:55:32.473Z,100887.91
2022-08-20T16:57:59.189Z,100974.88
2022-08-20T17:00:35.278Z,101001.56
2022-08-20T17:03:19.069Z,101012.56
2022-08-20T17:06:00.437Z,100995.38
2022-08-20T17:08:34.345Z,100971.94
2022-08-20T17:11:14.472Z,101016.13
2022-08-20T17:13:44.351Z,101019.53
2022-08-20T17:16:13.996Z,101013.75
2022-08-20T17:18:49.617Z,100973.38
2022-08-20T17:21:28.559Z,100985.94
2022-08-20T17:24:01.040Z,100999.75
2022-08-20T17:26:42.429Z,100997.03
2022-08-20T17:29:17.408Z,100994.84
2022-08-20T17:32:09.981Z,100991.06
2022-08-20T17:34:48.760Z,100966.56
2022-08-20T17:37:29.369Z,101000.50
2022-08-20T17:40:15.060Z,100970.94
2022-08-20T17:42:48.669Z,100985.84
2022-08-20T17:45:27.384Z,101005.94
2022-08-20T17:47:58.143Z,101009.00
2022-08-20T17:50:36.929Z,101010.94
2022-08-20T17:53:11.443Z,101009.47
2022-08-20T17:55:40.082Z,101002.16
2022-08-20T17:58:12.710Z,100981.63
2022-08-20T18:00:39.670Z,100991.50
2022-08-20T18:03:27.007Z,100984.72
2022-08-20T18:05:58.117Z,101006.38
2022-08-20T18:08:49.016Z,101026.47
2022-08-20T18:11:27.065Z,101031.84
2022-08-20T18:13:59.648Z,101030.13
2022-08-20T18:16:30.498Z,100979.31
2022-08-20T18:19:08.511Z,100953.44
2022-08-20T18:22:06.425Z,100998.56
2022-08-20T18:24:54.078Z,101032.13
2022-08-20T18:27:25.356Z,101024.63
2022-08-20T18:29:59.436Z,101036.06
2022-08-20T18:32:37.992Z,101039.50
2022-08-20T18:35:31.091Z,101034.59
2022-08-20T18:37:57.767Z,100953.22
2022-08-20T18:40:31.100Z,101031.91
2022-08-20T18:43:10.846Z,101025.66
2022-08-20T18:45:37.406Z,101008.63
2022-08-20T18:48:05.373Z,101034.44
2022-08-20T18:50:40.927Z,101037.53
2022-08-20T18:53:17.343Z,101024.97
2022-08-20T18:55:47.098Z,101017.91
2022-08-20T18:58:35.386Z,101047.53
2022-08-20T19:01:04.954Z,101044.44
2022-08-20T19:03:41.509Z,101018.69
2022-08-20T19:06:22.020Z,101047.81
2022-08-20T19:08:53.644Z,101007.94
2022-08-20T19:11:57.138Z,101053.94
2022-08-20T19:14:44.274Z,101056.63
2022-08-20T19:17:18.026Z,101015.22
2022-08-20T19:19:44.458Z,100985.84
2022-08-20T19:22:21.142Z,101045.91
2022-08-20T19:24:56.644Z,100970.22
2022-08-20T19:27:23.864Z,101038.47
2022-08-20T19:29:56.931Z,100974.19
2022-08-20T19:32:29.433Z,100960.66
2022-08-20T19:35:02.139Z,101042.78
2022-08-20T19:37:39.867Z,101069.72
2022-08-20T19:40:29.414Z,101025.00
2022-08-20T19:42:59.360Z,101073.16
2022-08-20T19:45:39.983Z,101081.47
2022-08-20T19:48:06.442Z,101076.47
2022-08-20T19:50:57.724Z,101043.19
2022-08-20T19:53:31.063Z,101074.22
2022-08-20T19:56:04.406Z,101046.84
2022-08-20T19:58:32.650Z,101081.28
2022-08-20T20:01:01.777Z,101069.94
2022-08-20T20:03:35.676Z,101084.94
2022-08-20T20:06:18.179Z,101089.66
2022-08-20T20:09:02.117Z,101077.00
2022-08-20T20:11:34.727Z,101083.00
2022-08-20T20:14:13.032Z,101084.75
2022-08-20T20:16:41.148Z,101057.94
2022-08-20T20:19:28.693Z,101068.00
2022-08-20T20:22:20.108Z,101062.75
2022-08-20T20:24:57.638Z,101078.91
2022-08-20T20:27:29.023Z,101072.19
2022-08-20T20:30:02.428Z,101077.94
2022-08-20T20:32:30.355Z,101048.50
2022-08-20T20:34:59.262Z,101045.28
2022-08-20T20:37:50.087Z,101071.09
2022-08-20T20:40:30.892Z,101029.63
2022-08-20T20:43:07.933Z,101070.53
2022-08-20T20:45:38.423Z,101054.63
2022-08-20T20:48:13.929Z,101056.63
2022-08-20T20:50:40.548Z,101027.16
2022-08-20T20:53:07.344Z,101041.13
2022-08-20T20:55:37.338Z,101082.38
2022-08-20T20:58:04.427Z,101055.53
2022-08-20T21:00:34.017Z,101081.41
2022-08-20T21:03:02.732Z,101044.91
2022-08-20T21:05:30.544Z,101081.16
2022-08-20T21:08:00.045Z,101060.78
2022-08-20T21:10:32.068Z,101093.75
2022-08-20T21:12:59.765Z,101054.50
2022-08-20T21:15:26.915Z,100988.63
2022-08-20T21:17:53.797Z,101020.97
2022-08-20T21:20:22.521Z,101079.78
2022-08-20T21:22:49.391Z,101048.03
2022-08-20T21:25:16.147Z,101074.78
2022-08-20T21:27:47.061Z,101082.13
2022-08-20T21:30:14.763Z,101076.97
2022-08-20T21:32:41.353Z,101084.03
2022-08-20T21:35:08.711Z,101057.78
2022-08-20T21:37:35.701Z,101071.88
2022-08-20T21:40:03.485Z,101059.78
2022-08-20T21:42:30.276Z,101031.94
2022-08-20T21:44:58.002Z,101070.34
2022-08-20T21:47:25.167Z,101087.09
2022-08-20T21:49:52.194Z,100998.06
2022-08-20T21:52:18.987Z,101055.31
2022-08-20T21:54:45.423Z,101055.50
2022-08-20T21:57:20.423Z,101076.34
2022-08-20T21:59:47.467Z,101030.22
2022-08-20T22:02:15.408Z,101069.78
2022-08-20T22:04:41.903Z,101041.75
2022-08-20T22:07:08.680Z,101083.50
2022-08-20T22:09:36.389Z,101049.38
2022-08-20T22:12:03.770Z,100986.03
2022-08-20T22:14:30.784Z,100985.34
2022-08-20T22:16:58.031Z,100997.34
2022-08-20T22:19:24.952Z,100983.13
2022-08-20T22:21:53.333Z,100932.38
2022-08-20T22:24:19.862Z,100956.03
2022-08-20T22:26:46.344Z,101017.06
2022-08-20T22:29:12.937Z,101000.53
2022-08-20T22:31:42.645Z,101015.72
2022-08-20T22:34:11.298Z,100987.41
2022-08-20T22:36:38.365Z,100975.78
2022-08-20T22:39:05.415Z,101063.28
2022-08-20T22:41:32.221Z,101041.97
2022-08-20T22:43:58.761Z,101031.41
2022-08-20T22:46:28.541Z,101064.53
2022-08-20T22:48:56.224Z,101079.81
2022-08-20T22:52:06.455Z,100986.88
2022-08-20T22:54:34.228Z,100994.44
2022-08-20T22:57:00.958Z,100991.00
2022-08-20T22:59:27.576Z,100992.88
2022-08-20T23:01:54.472Z,100971.78
2022-08-20T23:04:34.171Z,101064.94
2022-08-20T23:07:02.626Z,100961.03
2022-08-20T23:09:30.257Z,100995.09
2022-08-20T23:11:56.969Z,101035.28
2022-08-20T23:14:23.399Z,100918.81
2022-08-20T23:17:13.584Z,100996.34
2022-08-20T23:19:41.364Z,100984.50
2022-08-20T23:22:08.468Z,100990.13
2022-08-20T23:24:35.962Z,101054.75
2022-08-20T23:27:04.793Z,100957.63
2022-08-20T23:29:31.392Z,101055.03
2022-08-20T23:31:58.353Z,100968.72
2022-08-20T23:34:25.959Z,100983.81
2022-08-20T23:36:53.907Z,100981.41
2022-08-20T23:39:20.637Z,100947.72
2022-08-20T23:41:48.117Z,100955.84
2022-08-20T23:44:26.521Z,100959.44
2022-08-20T23:47:01.155Z,100871.75
2022-08-20T23:49:29.926Z,100957.31
2022-08-20T23:51:57.872Z,100954.06
2022-08-20T23:54:24.326Z,101005.06
2022-08-20T23:56:50.835Z,100941.91
2022-08-20T23:59:17.630Z,101026.25
